sensor_id;sensor_type;location;lat;lon;timestamp;temperature;humidity
66128;DHT22;52925;52.436;-1.952;2023-08-20T07:03:25;19.20;90.50
66128;DHT22;52925;52.436;-1.952;2023-08-20T07:04:46;19.30;90.50
66128;DHT22;52925;52.436;-1.952;2023-08-20T07:06:07;19.20;90.50
66128;DHT22;52925;52.436;-1.952;2023-08-20T07:07:28;19.20;90.60
66128;DHT22;52925;52.436;-1.952;2023-08-20T07:08:49;19.20;90.60
66128;DHT22;52925;52.436;-1.952;2023-08-20T07:10:10;19.20;90.60
66128;DHT22;52925;52.436;-1.952;2023-08-20T07:11:31;19.30;90.60
66128;DHT22;52925;52.436;-1.952;2023-08-20T07:12:51;19.20;90.50
66128;DHT22;52925;52.436;-1.952;2023-08-20T07:14:12;19.30;90.50
66128;DHT22;52925;52.436;-1.952;2023-08-20T07:15:32;19.30;90.50
66128;DHT22;52925;52.436;-1.952;2023-08-20T07:16:52;19.20;90.60
66128;DHT22;52925;52.436;-1.952;2023-08-20T07:18:12;19.20;90.60
66128;DHT22;52925;52.436;-1.952;2023-08-20T07:19:36;19.30;90.60
66128;DHT22;52925;52.436;-1.952;2023-08-20T07:20:56;19.20;90.60
66128;DHT22;52925;52.436;-1.952;2023-08-20T07:22:17;19.20;90.60
66128;DHT22;52925;52.436;-1.952;2023-08-20T07:23:37;19.20;90.60
66128;DHT22;52925;52.436;-1.952;2023-08-20T07:24:58;19.20;90.70
66128;DHT22;52925;52.436;-1.952;2023-08-20T07:26:18;19.10;90.70
66128;DHT22;52925;52.436;-1.952;2023-08-20T07:27:38;19.00;90.90
66128;DHT22;52925;52.436;-1.952;2023-08-20T07:28:58;19.10;91.00
66128;DHT22;52925;52.436;-1.952;2023-08-20T07:30:19;19.00;91.00
66128;DHT22;52925;52.436;-1.952;2023-08-20T07:31:39;19.10;91.10
66128;DHT22;52925;52.436;-1.952;2023-08-20T07:33:00;19.10;91.00
66128;DHT22;52925;52.436;-1.952;2023-08-20T07:34:20;19.20;91.00
66128;DHT22;52925;52.436;-1.952;2023-08-20T07:35:42;19.10;90.90
66128;DHT22;52925;52.436;-1.952;2023-08-20T07:37:02;19.10;91.10
66128;DHT22;52925;52.436;-1.952;2023-08-20T07:38:24;19.10;91.10
66128;DHT22;52925;52.436;-1.952;2023-08-20T07:39:44;19.10;91.00
66128;DHT22;52925;52.436;-1.952;2023-08-20T07:41:05;19.10;91.10
66128;DHT22;52925;52.436;-1.952;2023-08-20T07:42:25;19.10;91.10
66128;DHT22;52925;52.436;-1.952;2023-08-20T07:43:46;19.20;91.10
66128;DHT22;52925;52.436;-1.952;2023-08-20T07:45:07;19.20;91.00
66128;DHT22;52925;52.436;-1.952;2023-08-20T07:46:28;19.20;91.00
66128;DHT22;52925;52.436;-1.952;2023-08-20T07:47:48;19.20;90.90
66128;DHT22;52925;52.436;-1.952;2023-08-20T07:49:09;19.20;90.90
66128;DHT22;52925;52.436;-1.952;2023-08-20T07:50:28;19.20;91.00
66128;DHT22;52925;52.436;-1.952;2023-08-20T07:51:51;19.20;90.90
66128;DHT22;52925;52.436;-1.952;2023-08-20T07:53:12;19.20;90.90
66128;DHT22;52925;52.436;-1.952;2023-08-20T07:54:33;19.20;90.90
66128;DHT22;52925;52.436;-1.952;2023-08-20T07:55:53;19.10;91.10
66128;DHT22;52925;52.436;-1.952;2023-08-20T07:57:14;19.00;91.20
66128;DHT22;52925;52.436;-1.952;2023-08-20T07:58:33;19.00;91.30
66128;DHT22;52925;52.436;-1.952;2023-08-20T07:59:54;19.00;91.30
66128;DHT22;52925;52.436;-1.952;2023-08-20T08:01:14;19.00;91.30
66128;DHT22;52925;52.436;-1.952;2023-08-20T08:02:36;19.10;91.30
66128;DHT22;52925;52.436;-1.952;2023-08-20T08:03:56;19.10;91.40
66128;DHT22;52925;52.436;-1.952;2023-08-20T08:05:17;19.10;91.40
66128;DHT22;52925;52.436;-1.952;2023-08-20T08:06:37;19.20;91.70
66128;DHT22;52925;52.436;-1.952;2023-08-20T08:07:59;19.20;91.80
66128;DHT22;52925;52.436;-1.952;2023-08-20T08:09:20;19.30;91.80
66128;DHT22;52925;52.436;-1.952;2023-08-20T08:10:41;19.40;91.60
66128;DHT22;52925;52.436;-1.952;2023-08-20T08:12:04;19.40;91.60
66128;DHT22;52925;52.436;-1.952;2023-08-20T08:13:26;19.40;91.50
66128;DHT22;52925;52.436;-1.952;2023-08-20T08:14:46;19.40;91.40
66128;DHT22;52925;52.436;-1.952;2023-08-20T08:16:08;19.40;91.40
66128;DHT22;52925;52.436;-1.952;2023-08-20T08:17:28;19.30;91.40
66128;DHT22;52925;52.436;-1.952;2023-08-20T08:18:48;19.30;91.50
66128;DHT22;52925;52.436;-1.952;2023-08-20T08:20:08;19.30;91.50
66128;DHT22;52925;52.436;-1.952;2023-08-20T08:21:29;19.40;91.50
66128;DHT22;52925;52.436;-1.952;2023-08-20T08:22:49;19.40;91.50
66128;DHT22;52925;52.436;-1.952;2023-08-20T08:24:12;19.40;91.50
66128;DHT22;52925;52.436;-1.952;2023-08-20T08:25:32;19.40;91.50
66128;DHT22;52925;52.436;-1.952;2023-08-20T08:26:53;19.50;91.30
66128;DHT22;52925;52.436;-1.952;2023-08-20T08:28:13;19.30;92.00
66128;DHT22;52925;52.436;-1.952;2023-08-20T08:29:34;18.50;92.00
66128;DHT22;52925;52.436;-1.952;2023-08-20T08:30:54;18.50;93.00
66128;DHT22;52925;52.436;-1.952;2023-08-20T08:32:14;18.70;93.00
66128;DHT22;52925;52.436;-1.952;2023-08-20T08:33:34;18.80;92.60
66128;DHT22;52925;52.436;-1.952;2023-08-20T08:34:55;19.00;92.30
66128;DHT22;52925;52.436;-1.952;2023-08-20T08:36:15;19.10;92.20
66128;DHT22;52925;52.436;-1.952;2023-08-20T08:37:37;18.90;92.30
66128;DHT22;52925;52.436;-1.952;2023-08-20T08:38:57;19.10;92.40
66128;DHT22;52925;52.436;-1.952;2023-08-20T08:40:19;19.00;92.40
66128;DHT22;52925;52.436;-1.952;2023-08-20T08:41:41;19.10;92.60
66128;DHT22;52925;52.436;-1.952;2023-08-20T08:43:03;19.00;92.40
66128;DHT22;52925;52.436;-1.952;2023-08-20T08:44:23;19.00;92.60
66128;DHT22;52925;52.436;-1.952;2023-08-20T08:45:46;18.80;92.50
66128;DHT22;52925;52.436;-1.952;2023-08-20T08:47:07;18.90;92.90
66128;DHT22;52925;52.436;-1.952;2023-08-20T08:48:28;18.80;92.30
66128;DHT22;52925;52.436;-1.952;2023-08-20T08:49:48;18.70;92.80
66128;DHT22;52925;52.436;-1.952;2023-08-20T08:51:09;18.60;93.20
66128;DHT22;52925;52.436;-1.952;2023-08-20T08:52:30;18.70;93.10
66128;DHT22;52925;52.436;-1.952;2023-08-20T08:53:52;18.60;93.50
66128;DHT22;52925;52.436;-1.952;2023-08-20T08:55:12;18.60;93.30
66128;DHT22;52925;52.436;-1.952;2023-08-20T08:56:35;18.60;93.40
66128;DHT22;52925;52.436;-1.952;2023-08-20T08:57:55;18.60;93.60
66128;DHT22;52925;52.436;-1.952;2023-08-20T08:59:16;18.70;93.40
66128;DHT22;52925;52.436;-1.952;2023-08-20T09:00:36;18.90;93.50
66128;DHT22;52925;52.436;-1.952;2023-08-20T09:01:56;18.70;93.30
66128;DHT22;52925;52.436;-1.952;2023-08-20T09:03:16;18.50;93.30
66128;DHT22;52925;52.436;-1.952;2023-08-20T09:04:38;18.50;93.60
66128;DHT22;52925;52.436;-1.952;2023-08-20T09:06:00;18.70;93.40
66128;DHT22;52925;52.436;-1.952;2023-08-20T09:07:22;18.70;93.50
66128;DHT22;52925;52.436;-1.952;2023-08-20T09:08:42;18.70;93.30
66128;DHT22;52925;52.436;-1.952;2023-08-20T09:10:04;18.80;93.30
66128;DHT22;52925;52.436;-1.952;2023-08-20T09:11:35;18.70;93.10
66128;DHT22;52925;52.436;-1.952;2023-08-20T09:12:56;18.60;93.00
66128;DHT22;52925;52.436;-1.952;2023-08-20T09:14:29;18.60;92.90
66128;DHT22;52925;52.436;-1.952;2023-08-20T09:15:50;18.40;92.70
66128;DHT22;52925;52.436;-1.952;2023-08-20T09:17:12;18.10;92.80
66128;DHT22;52925;52.436;-1.952;2023-08-20T09:18:32;18.10;93.20
66128;DHT22;52925;52.436;-1.952;2023-08-20T09:19:54;18.30;93.20
66128;DHT22;52925;52.436;-1.952;2023-08-20T09:21:15;18.50;93.00
66128;DHT22;52925;52.436;-1.952;2023-08-20T09:22:36;18.70;92.80
66128;DHT22;52925;52.436;-1.952;2023-08-20T09:23:57;18.80;92.60
66128;DHT22;52925;52.436;-1.952;2023-08-20T09:25:17;18.90;92.40
66128;DHT22;52925;52.436;-1.952;2023-08-20T09:26:39;18.90;92.20
66128;DHT22;52925;52.436;-1.952;2023-08-20T09:28:02;18.90;92.30
66128;DHT22;52925;52.436;-1.952;2023-08-20T09:29:22;19.10;92.10
66128;DHT22;52925;52.436;-1.952;2023-08-20T09:30:55;19.10;91.40
66128;DHT22;52925;52.436;-1.952;2023-08-20T09:32:17;18.90;91.70
66128;DHT22;52925;52.436;-1.952;2023-08-20T09:33:49;18.90;91.90
66128;DHT22;52925;52.436;-1.952;2023-08-20T09:35:18;19.10;91.80
66128;DHT22;52925;52.436;-1.952;2023-08-20T09:36:39;19.20;91.70
66128;DHT22;52925;52.436;-1.952;2023-08-20T09:37:59;19.30;91.20
66128;DHT22;52925;52.436;-1.952;2023-08-20T09:39:20;19.20;91.10
66128;DHT22;52925;52.436;-1.952;2023-08-20T09:40:39;19.40;91.40
66128;DHT22;52925;52.436;-1.952;2023-08-20T09:42:02;19.40;91.50
66128;DHT22;52925;52.436;-1.952;2023-08-20T09:43:24;19.40;91.40
66128;DHT22;52925;52.436;-1.952;2023-08-20T09:44:47;19.20;91.80
66128;DHT22;52925;52.436;-1.952;2023-08-20T09:46:10;18.80;91.50
66128;DHT22;52925;52.436;-1.952;2023-08-20T09:47:35;18.70;92.00
66128;DHT22;52925;52.436;-1.952;2023-08-20T09:48:56;18.80;91.80
66128;DHT22;52925;52.436;-1.952;2023-08-20T09:50:18;18.70;91.70
66128;DHT22;52925;52.436;-1.952;2023-08-20T09:51:38;18.80;92.40
66128;DHT22;52925;52.436;-1.952;2023-08-20T09:53:08;18.80;92.10
66128;DHT22;52925;52.436;-1.952;2023-08-20T09:54:51;19.00;92.30
66128;DHT22;52925;52.436;-1.952;2023-08-20T09:56:20;19.00;92.30
66128;DHT22;52925;52.436;-1.952;2023-08-20T09:57:42;19.20;92.10
66128;DHT22;52925;52.436;-1.952;2023-08-20T09:59:03;19.40;91.50
66128;DHT22;52925;52.436;-1.952;2023-08-20T10:00:23;19.40;92.00
66128;DHT22;52925;52.436;-1.952;2023-08-20T10:01:44;19.50;91.90
66128;DHT22;52925;52.436;-1.952;2023-08-20T10:03:07;19.60;90.80
66128;DHT22;52925;52.436;-1.952;2023-08-20T10:04:29;19.60;91.10
66128;DHT22;52925;52.436;-1.952;2023-08-20T10:05:50;19.70;90.90
66128;DHT22;52925;52.436;-1.952;2023-08-20T10:07:12;19.80;91.00
66128;DHT22;52925;52.436;-1.952;2023-08-20T10:08:33;19.70;90.60
66128;DHT22;52925;52.436;-1.952;2023-08-20T10:09:55;19.80;90.90
66128;DHT22;52925;52.436;-1.952;2023-08-20T10:11:14;19.50;90.30
66128;DHT22;52925;52.436;-1.952;2023-08-20T10:12:37;19.50;91.00
66128;DHT22;52925;52.436;-1.952;2023-08-20T10:14:00;19.50;90.80
66128;DHT22;52925;52.436;-1.952;2023-08-20T10:15:21;19.40;90.60
66128;DHT22;52925;52.436;-1.952;2023-08-20T10:16:43;19.20;90.90
66128;DHT22;52925;52.436;-1.952;2023-08-20T10:18:04;19.10;90.90
66128;DHT22;52925;52.436;-1.952;2023-08-20T10:19:24;19.20;91.10
66128;DHT22;52925;52.436;-1.952;2023-08-20T10:20:45;19.40;89.60
66128;DHT22;52925;52.436;-1.952;2023-08-20T10:22:07;19.50;90.30
66128;DHT22;52925;52.436;-1.952;2023-08-20T10:23:28;19.40;89.50
66128;DHT22;52925;52.436;-1.952;2023-08-20T10:24:48;19.40;89.20
66128;DHT22;52925;52.436;-1.952;2023-08-20T10:26:10;19.50;90.60
66128;DHT22;52925;52.436;-1.952;2023-08-20T10:27:32;19.60;90.50
66128;DHT22;52925;52.436;-1.952;2023-08-20T10:29:36;19.70;90.70
66128;DHT22;52925;52.436;-1.952;2023-08-20T10:31:04;19.70;90.50
66128;DHT22;52925;52.436;-1.952;2023-08-20T10:32:43;19.70;90.40
66128;DHT22;52925;52.436;-1.952;2023-08-20T10:34:04;19.80;90.30
66128;DHT22;52925;52.436;-1.952;2023-08-20T10:35:26;19.70;90.20
66128;DHT22;52925;52.436;-1.952;2023-08-20T10:36:50;19.70;90.20
66128;DHT22;52925;52.436;-1.952;2023-08-20T10:38:12;19.80;89.90
66128;DHT22;52925;52.436;-1.952;2023-08-20T10:39:32;19.80;89.90
66128;DHT22;52925;52.436;-1.952;2023-08-20T10:40:54;19.70;89.50
66128;DHT22;52925;52.436;-1.952;2023-08-20T10:42:27;19.70;89.60
66128;DHT22;52925;52.436;-1.952;2023-08-20T10:43:49;19.80;90.20
66128;DHT22;52925;52.436;-1.952;2023-08-20T10:45:11;19.80;90.30
66128;DHT22;52925;52.436;-1.952;2023-08-20T10:46:32;20.00;90.10
66128;DHT22;52925;52.436;-1.952;2023-08-20T10:47:54;19.90;89.90
66128;DHT22;52925;52.436;-1.952;2023-08-20T10:49:17;20.00;89.80
66128;DHT22;52925;52.436;-1.952;2023-08-20T10:50:40;20.00;90.00
66128;DHT22;52925;52.436;-1.952;2023-08-20T10:52:02;20.00;90.20
66128;DHT22;52925;52.436;-1.952;2023-08-20T10:53:23;20.00;90.20
66128;DHT22;52925;52.436;-1.952;2023-08-20T10:54:42;20.00;90.10
66128;DHT22;52925;52.436;-1.952;2023-08-20T10:56:11;20.00;89.90
66128;DHT22;52925;52.436;-1.952;2023-08-20T10:57:35;20.00;90.00
66128;DHT22;52925;52.436;-1.952;2023-08-20T10:59:05;20.10;90.00
66128;DHT22;52925;52.436;-1.952;2023-08-20T11:00:27;20.10;90.20
66128;DHT22;52925;52.436;-1.952;2023-08-20T11:01:50;20.10;90.00
66128;DHT22;52925;52.436;-1.952;2023-08-20T11:03:10;20.20;90.00
66128;DHT22;52925;52.436;-1.952;2023-08-20T11:04:32;20.20;89.20
66128;DHT22;52925;52.436;-1.952;2023-08-20T11:05:52;20.20;89.20
66128;DHT22;52925;52.436;-1.952;2023-08-20T11:07:17;20.20;89.20
66128;DHT22;52925;52.436;-1.952;2023-08-20T11:08:38;20.20;89.40
66128;DHT22;52925;52.436;-1.952;2023-08-20T11:09:59;20.20;89.50
66128;DHT22;52925;52.436;-1.952;2023-08-20T11:11:20;20.30;89.50
66128;DHT22;52925;52.436;-1.952;2023-08-20T11:12:40;20.30;89.70
66128;DHT22;52925;52.436;-1.952;2023-08-20T11:14:06;20.30;89.50
66128;DHT22;52925;52.436;-1.952;2023-08-20T11:15:28;20.20;89.30
66128;DHT22;52925;52.436;-1.952;2023-08-20T11:16:49;20.30;88.90
66128;DHT22;52925;52.436;-1.952;2023-08-20T11:18:09;20.20;89.20
66128;DHT22;52925;52.436;-1.952;2023-08-20T11:19:30;20.20;89.20
66128;DHT22;52925;52.436;-1.952;2023-08-20T11:20:51;20.20;89.30
66128;DHT22;52925;52.436;-1.952;2023-08-20T11:22:12;20.30;89.30
66128;DHT22;52925;52.436;-1.952;2023-08-20T11:23:35;20.30;89.10
66128;DHT22;52925;52.436;-1.952;2023-08-20T11:24:57;20.20;89.00
66128;DHT22;52925;52.436;-1.952;2023-08-20T11:26:18;20.20;88.90
66128;DHT22;52925;52.436;-1.952;2023-08-20T11:27:40;20.40;88.40
66128;DHT22;52925;52.436;-1.952;2023-08-20T11:29:01;20.40;88.40
66128;DHT22;52925;52.436;-1.952;2023-08-20T11:30:30;20.40;88.60
66128;DHT22;52925;52.436;-1.952;2023-08-20T11:31:52;20.40;88.50
66128;DHT22;52925;52.436;-1.952;2023-08-20T11:33:12;20.40;88.40
66128;DHT22;52925;52.436;-1.952;2023-08-20T11:34:33;20.40;88.60
66128;DHT22;52925;52.436;-1.952;2023-08-20T11:35:54;20.40;88.60
66128;DHT22;52925;52.436;-1.952;2023-08-20T11:37:17;20.40;88.60
66128;DHT22;52925;52.436;-1.952;2023-08-20T11:38:39;20.40;88.60
66128;DHT22;52925;52.436;-1.952;2023-08-20T11:39:59;20.40;88.50
66128;DHT22;52925;52.436;-1.952;2023-08-20T11:41:20;20.40;88.60
66128;DHT22;52925;52.436;-1.952;2023-08-20T11:42:40;20.40;88.60
66128;DHT22;52925;52.436;-1.952;2023-08-20T11:44:01;20.40;88.40
66128;DHT22;52925;52.436;-1.952;2023-08-20T11:45:20;20.40;88.60
66128;DHT22;52925;52.436;-1.952;2023-08-20T11:46:46;20.40;88.70
66128;DHT22;52925;52.436;-1.952;2023-08-20T11:48:09;20.40;88.70
66128;DHT22;52925;52.436;-1.952;2023-08-20T11:49:28;20.50;88.80
66128;DHT22;52925;52.436;-1.952;2023-08-20T11:50:50;20.50;88.80
66128;DHT22;52925;52.436;-1.952;2023-08-20T11:52:10;20.50;89.10
66128;DHT22;52925;52.436;-1.952;2023-08-20T11:53:32;20.50;88.20
66128;DHT22;52925;52.436;-1.952;2023-08-20T11:54:53;20.50;89.00
66128;DHT22;52925;52.436;-1.952;2023-08-20T11:56:13;20.70;87.80
66128;DHT22;52925;52.436;-1.952;2023-08-20T11:57:35;20.70;88.10
66128;DHT22;52925;52.436;-1.952;2023-08-20T11:58:59;20.70;88.30
66128;DHT22;52925;52.436;-1.952;2023-08-20T12:00:30;20.60;88.20
66128;DHT22;52925;52.436;-1.952;2023-08-20T12:01:54;20.60;88.70
66128;DHT22;52925;52.436;-1.952;2023-08-20T12:03:15;20.60;88.80
66128;DHT22;52925;52.436;-1.952;2023-08-20T12:04:35;20.60;88.80
66128;DHT22;52925;52.436;-1.952;2023-08-20T12:05:56;20.60;88.40
66128;DHT22;52925;52.436;-1.952;2023-08-20T12:07:16;20.60;88.00
66128;DHT22;52925;52.436;-1.952;2023-08-20T12:08:37;20.60;87.90
66128;DHT22;52925;52.436;-1.952;2023-08-20T12:09:58;20.60;88.20
66128;DHT22;52925;52.436;-1.952;2023-08-20T12:11:24;20.60;88.30
66128;DHT22;52925;52.436;-1.952;2023-08-20T12:12:44;20.60;88.20
66128;DHT22;52925;52.436;-1.952;2023-08-20T12:14:04;20.60;88.40
66128;DHT22;52925;52.436;-1.952;2023-08-20T12:15:25;20.60;88.40
66128;DHT22;52925;52.436;-1.952;2023-08-20T12:16:46;20.60;88.50
66128;DHT22;52925;52.436;-1.952;2023-08-20T12:18:07;20.60;88.40
66128;DHT22;52925;52.436;-1.952;2023-08-20T12:19:29;20.60;87.50
66128;DHT22;52925;52.436;-1.952;2023-08-20T12:20:49;20.60;87.70
66128;DHT22;52925;52.436;-1.952;2023-08-20T12:22:10;20.60;87.90
66128;DHT22;52925;52.436;-1.952;2023-08-20T12:23:30;20.80;84.30
66128;DHT22;52925;52.436;-1.952;2023-08-20T12:24:51;21.20;82.40
66128;DHT22;52925;52.436;-1.952;2023-08-20T12:26:12;21.20;83.30
66128;DHT22;52925;52.436;-1.952;2023-08-20T12:27:34;21.30;84.20
66128;DHT22;52925;52.436;-1.952;2023-08-20T12:28:53;21.30;82.40
66128;DHT22;52925;52.436;-1.952;2023-08-20T12:30:14;21.50;80.10
66128;DHT22;52925;52.436;-1.952;2023-08-20T12:31:35;21.60;80.50
66128;DHT22;52925;52.436;-1.952;2023-08-20T12:32:56;21.60;79.50
66128;DHT22;52925;52.436;-1.952;2023-08-20T12:34:17;21.60;81.80
66128;DHT22;52925;52.436;-1.952;2023-08-20T12:35:38;21.70;81.90
66128;DHT22;52925;52.436;-1.952;2023-08-20T12:36:58;21.90;79.60
66128;DHT22;52925;52.436;-1.952;2023-08-20T12:38:19;22.10;78.70
66128;DHT22;52925;52.436;-1.952;2023-08-20T12:39:39;22.20;79.30
66128;DHT22;52925;52.436;-1.952;2023-08-20T12:41:00;22.10;77.40
66128;DHT22;52925;52.436;-1.952;2023-08-20T12:42:23;22.10;77.40
66128;DHT22;52925;52.436;-1.952;2023-08-20T12:43:47;22.10;78.80
66128;DHT22;52925;52.436;-1.952;2023-08-20T12:47:08;22.00;80.30
66128;DHT22;52925;52.436;-1.952;2023-08-20T12:47:23;21.90;81.30
66128;DHT22;52925;52.436;-1.952;2023-08-20T12:48:44;21.90;81.30
66128;DHT22;52925;52.436;-1.952;2023-08-20T12:50:06;21.70;78.60
66128;DHT22;52925;52.436;-1.952;2023-08-20T12:51:27;21.80;80.90
66128;DHT22;52925;52.436;-1.952;2023-08-20T12:52:47;21.90;79.90
66128;DHT22;52925;52.436;-1.952;2023-08-20T12:54:10;22.00;80.10
66128;DHT22;52925;52.436;-1.952;2023-08-20T12:55:30;21.90;79.80
66128;DHT22;52925;52.436;-1.952;2023-08-20T12:56:51;21.90;78.20
66128;DHT22;52925;52.436;-1.952;2023-08-20T12:58:11;21.80;79.40
66128;DHT22;52925;52.436;-1.952;2023-08-20T12:59:32;21.70;80.30
66128;DHT22;52925;52.436;-1.952;2023-08-20T13:00:54;21.70;80.40
66128;DHT22;52925;52.436;-1.952;2023-08-20T13:02:15;21.60;80.80
66128;DHT22;52925;52.436;-1.952;2023-08-20T13:03:35;21.50;82.10
66128;DHT22;52925;52.436;-1.952;2023-08-20T13:04:57;21.50;81.60
66128;DHT22;52925;52.436;-1.952;2023-08-20T13:06:20;21.40;83.00
66128;DHT22;52925;52.436;-1.952;2023-08-20T13:07:42;21.50;82.80
66128;DHT22;52925;52.436;-1.952;2023-08-20T13:09:04;21.40;81.00
66128;DHT22;52925;52.436;-1.952;2023-08-20T13:10:26;21.40;81.60
66128;DHT22;52925;52.436;-1.952;2023-08-20T13:11:47;21.40;82.20
66128;DHT22;52925;52.436;-1.952;2023-08-20T13:13:10;21.40;82.20
66128;DHT22;52925;52.436;-1.952;2023-08-20T13:14:30;21.50;84.10
66128;DHT22;52925;52.436;-1.952;2023-08-20T13:15:52;21.40;83.70
66128;DHT22;52925;52.436;-1.952;2023-08-20T13:17:13;21.30;83.90
66128;DHT22;52925;52.436;-1.952;2023-08-20T13:18:34;21.30;83.90
66128;DHT22;52925;52.436;-1.952;2023-08-20T13:19:54;21.20;83.90
66128;DHT22;52925;52.436;-1.952;2023-08-20T13:21:15;21.30;82.50
66128;DHT22;52925;52.436;-1.952;2023-08-20T13:22:37;21.40;83.70
66128;DHT22;52925;52.436;-1.952;2023-08-20T13:23:57;21.50;84.30
66128;DHT22;52925;52.436;-1.952;2023-08-20T13:25:17;21.50;83.60
66128;DHT22;52925;52.436;-1.952;2023-08-20T13:26:40;21.40;83.60
66128;DHT22;52925;52.436;-1.952;2023-08-20T13:28:00;21.40;83.80
66128;DHT22;52925;52.436;-1.952;2023-08-20T13:29:21;21.40;82.90
66128;DHT22;52925;52.436;-1.952;2023-08-20T13:30:41;21.40;80.70
66128;DHT22;52925;52.436;-1.952;2023-08-20T13:32:02;21.40;82.40
66128;DHT22;52925;52.436;-1.952;2023-08-20T13:33:22;21.40;83.00
66128;DHT22;52925;52.436;-1.952;2023-08-20T13:34:43;21.40;80.90
66128;DHT22;52925;52.436;-1.952;2023-08-20T13:36:03;21.50;80.80
66128;DHT22;52925;52.436;-1.952;2023-08-20T13:37:24;21.40;81.40
66128;DHT22;52925;52.436;-1.952;2023-08-20T13:38:45;21.30;80.90
66128;DHT22;52925;52.436;-1.952;2023-08-20T13:40:07;21.30;81.30
66128;DHT22;52925;52.436;-1.952;2023-08-20T13:41:28;21.70;80.10
66128;DHT22;52925;52.436;-1.952;2023-08-20T13:42:49;21.60;81.10
66128;DHT22;52925;52.436;-1.952;2023-08-20T13:44:09;21.70;81.20
66128;DHT22;52925;52.436;-1.952;2023-08-20T13:45:29;21.50;81.30
66128;DHT22;52925;52.436;-1.952;2023-08-20T13:46:51;21.40;81.80
66128;DHT22;52925;52.436;-1.952;2023-08-20T13:48:11;21.40;82.10
66128;DHT22;52925;52.436;-1.952;2023-08-20T13:49:32;21.30;82.40
66128;DHT22;52925;52.436;-1.952;2023-08-20T13:50:51;21.30;82.70
66128;DHT22;52925;52.436;-1.952;2023-08-20T13:52:12;21.20;82.70
66128;DHT22;52925;52.436;-1.952;2023-08-20T13:53:32;21.20;83.00
66128;DHT22;52925;52.436;-1.952;2023-08-20T13:54:55;21.20;83.00
66128;DHT22;52925;52.436;-1.952;2023-08-20T13:56:14;21.20;83.10
66128;DHT22;52925;52.436;-1.952;2023-08-20T13:57:35;21.20;82.70
66128;DHT22;52925;52.436;-1.952;2023-08-20T13:58:55;21.10;82.00
66128;DHT22;52925;52.436;-1.952;2023-08-20T14:00:16;21.10;82.50
66128;DHT22;52925;52.436;-1.952;2023-08-20T14:01:35;21.10;82.50
66128;DHT22;52925;52.436;-1.952;2023-08-20T14:02:57;21.10;82.20
66128;DHT22;52925;52.436;-1.952;2023-08-20T14:04:17;21.10;82.50
66128;DHT22;52925;52.436;-1.952;2023-08-20T14:05:38;21.20;82.30
66128;DHT22;52925;52.436;-1.952;2023-08-20T14:06:58;21.20;82.20
66128;DHT22;52925;52.436;-1.952;2023-08-20T14:08:19;21.20;81.70
66128;DHT22;52925;52.436;-1.952;2023-08-20T14:09:38;21.20;82.10
66128;DHT22;52925;52.436;-1.952;2023-08-20T14:11:01;21.10;81.30
66128;DHT22;52925;52.436;-1.952;2023-08-20T14:12:21;21.10;81.40
66128;DHT22;52925;52.436;-1.952;2023-08-20T14:13:42;21.10;81.20
66128;DHT22;52925;52.436;-1.952;2023-08-20T14:15:03;21.30;80.60
66128;DHT22;52925;52.436;-1.952;2023-08-20T14:16:23;21.60;78.70
66128;DHT22;52925;52.436;-1.952;2023-08-20T14:17:44;21.80;77.00
66128;DHT22;52925;52.436;-1.952;2023-08-20T14:19:04;21.90;76.60
66128;DHT22;52925;52.436;-1.952;2023-08-20T14:20:25;21.90;74.00
66128;DHT22;52925;52.436;-1.952;2023-08-20T14:21:45;22.00;74.50
66128;DHT22;52925;52.436;-1.952;2023-08-20T14:23:06;22.10;75.30
66128;DHT22;52925;52.436;-1.952;2023-08-20T14:24:27;21.90;75.20
66128;DHT22;52925;52.436;-1.952;2023-08-20T14:25:47;21.80;75.90
66128;DHT22;52925;52.436;-1.952;2023-08-20T14:27:09;21.90;77.90
66128;DHT22;52925;52.436;-1.952;2023-08-20T14:28:29;21.70;75.00
66128;DHT22;52925;52.436;-1.952;2023-08-20T14:29:50;21.50;76.20
66128;DHT22;52925;52.436;-1.952;2023-08-20T14:44:20;21.20;75.90
